createdAt,value
2018-11-28T00:02:37.537Z,7.67
2018-11-28T00:12:42.410Z,7.57
2018-11-28T00:22:47.113Z,12.43
2018-11-28T00:32:53.183Z,11.43
2018-11-28T00:42:57.792Z,9.60
2018-11-28T00:53:02.465Z,10.83
2018-11-28T01:03:07.250Z,9.30
2018-11-28T01:13:12.051Z,8.53
2018-11-28T01:23:16.924Z,7.60
2018-11-28T01:33:21.674Z,7.80
2018-11-28T01:43:26.361Z,8.37
2018-11-28T01:53:31.123Z,7.37
2018-11-28T02:03:35.780Z,8.27
2018-11-28T02:13:41.443Z,8.47
2018-11-28T02:23:46.190Z,8.00
2018-11-28T02:33:50.837Z,7.67
2018-11-28T02:43:55.421Z,8.13
2018-11-28T02:54:00.147Z,7.13
2018-11-28T03:04:05.039Z,8.07
2018-11-28T03:14:09.755Z,7.63
2018-11-28T03:24:14.669Z,7.53
2018-11-28T03:34:19.379Z,7.47
2018-11-28T03:44:23.997Z,7.60
2018-11-28T03:54:28.772Z,7.30
2018-11-28T04:04:33.479Z,6.87
2018-11-28T04:14:38.433Z,7.20
2018-11-28T04:24:43.275Z,7.27
2018-11-28T04:34:48.042Z,6.93
2018-11-28T04:44:52.758Z,6.97
2018-11-28T04:54:57.418Z,6.70
2018-11-28T05:05:02.127Z,6.97
2018-11-28T05:15:09.244Z,7.80
2018-11-28T05:25:20.100Z,7.40
2018-11-28T05:35:41.187Z,7.40
2018-11-28T05:45:45.828Z,11.20
2018-11-28T05:55:51.358Z,11.60
2018-11-28T06:05:56.235Z,7.70
2018-11-28T06:16:00.920Z,19.00
2018-11-28T06:26:06.031Z,23.50
2018-11-28T06:36:11.004Z,25.63
2018-11-28T06:46:15.792Z,20.97
2018-11-28T06:56:20.517Z,19.13
2018-11-28T07:06:25.109Z,18.00
2018-11-28T07:16:30.138Z,16.63
2018-11-28T07:26:35.118Z,18.33
2018-11-28T07:36:39.749Z,15.87
2018-11-28T07:46:44.423Z,15.20
2018-11-28T07:56:49.206Z,15.17
2018-11-28T08:06:54.018Z,14.10
2018-11-28T08:16:58.808Z,14.57
2018-11-28T08:27:03.629Z,14.40
2018-11-28T08:37:08.564Z,12.93
2018-11-28T08:47:13.302Z,13.40
2018-11-28T08:57:17.905Z,13.07
2018-11-28T09:07:22.550Z,13.77
2018-11-28T09:17:27.136Z,12.87
2018-11-28T09:27:31.826Z,12.20
2018-11-28T09:37:36.854Z,12.43
2018-11-28T09:47:42.850Z,12.37
2018-11-28T09:57:47.827Z,12.40
2018-11-28T10:07:52.766Z,12.83
2018-11-28T10:17:57.802Z,12.43
2018-11-28T10:28:07.324Z,11.37
2018-11-28T10:38:12.137Z,11.30
2018-11-28T10:48:17.640Z,12.50
2018-11-28T10:58:22.201Z,11.00
2018-11-28T11:08:31.987Z,11.47
2018-11-28T11:18:36.615Z,11.37
2018-11-28T11:28:41.304Z,10.47
2018-11-28T11:38:46.091Z,10.03
2018-11-28T11:48:50.694Z,12.00
2018-11-28T11:58:55.288Z,21.60
2018-11-28T12:09:00.138Z,16.33
2018-11-28T12:19:05.150Z,13.40
2018-11-28T12:29:09.554Z,17.87
2018-11-28T12:39:14.361Z,19.73
2018-11-28T12:49:18.985Z,15.77
2018-11-28T12:59:23.621Z,16.10
2018-11-28T13:09:28.372Z,22.03
2018-11-28T13:19:33.115Z,21.63
2018-11-28T13:29:37.835Z,22.70
2018-11-28T13:39:42.459Z,17.20
2018-11-28T13:49:47.201Z,16.53
2018-11-28T13:59:51.832Z,14.97
2018-11-28T14:09:56.789Z,15.60
2018-11-28T14:20:01.650Z,13.43
2018-11-28T14:30:16.809Z,12.33
2018-11-28T14:40:23.083Z,12.30
2018-11-28T14:50:29.189Z,11.77
2018-11-28T15:00:34.471Z,10.97
2018-11-28T15:10:55.393Z,12.73
2018-11-28T15:21:00.017Z,11.63
2018-11-28T15:31:04.760Z,12.93
2018-11-28T15:41:09.609Z,13.27
2018-11-28T15:51:14.262Z,12.70
2018-11-28T16:01:19.102Z,17.40
2018-11-28T16:11:24.839Z,18.87
2018-11-28T16:21:29.961Z,14.03
2018-11-28T16:31:34.891Z,15.83
2018-11-28T16:41:39.652Z,13.63
2018-11-28T16:51:44.825Z,15.73
2018-11-28T17:01:49.400Z,13.80
2018-11-28T17:11:54.933Z,12.67
2018-11-28T17:21:59.708Z,14.27
2018-11-28T17:32:04.510Z,15.00
2018-11-28T17:42:09.516Z,15.17
2018-11-28T17:52:14.629Z,12.57
2018-11-28T18:02:19.486Z,10.97
2018-11-28T18:12:24.167Z,8.87
2018-11-28T18:22:29.097Z,8.07
2018-11-28T18:32:34.137Z,13.93
2018-11-28T18:42:39.302Z,12.63
2018-11-28T18:52:43.925Z,14.40
2018-11-28T19:02:48.806Z,11.87
2018-11-28T19:12:54.366Z,12.63
2018-11-28T19:22:59.501Z,14.60
2018-11-28T19:33:04.269Z,15.20
2018-11-28T19:43:08.924Z,16.70
2018-11-28T19:53:13.958Z,16.73
2018-11-28T20:03:20.087Z,17.87
2018-11-28T20:13:27.009Z,16.77
2018-11-28T20:23:32.437Z,22.37
2018-11-28T20:33:38.116Z,18.97
2018-11-28T20:43:43.419Z,14.33
2018-11-28T20:53:48.802Z,14.27
2018-11-28T21:03:53.643Z,20.40
2018-11-28T21:13:58.499Z,13.83
2018-11-28T21:24:03.626Z,15.97
2018-11-28T21:34:08.414Z,17.87
2018-11-28T21:44:13.712Z,15.93
2018-11-28T21:54:18.939Z,13.63
2018-11-28T22:04:23.718Z,19.57
2018-11-28T22:14:28.536Z,16.17
2018-11-28T22:24:33.427Z,17.70
2018-11-28T22:34:38.181Z,17.60
2018-11-28T22:44:43.035Z,18.37
2018-11-28T22:54:47.806Z,17.30
2018-11-28T23:04:52.570Z,21.47
2018-11-28T23:14:57.291Z,17.27
2018-11-28T23:25:02.057Z,18.53
2018-11-28T23:35:09.413Z,19.10
2018-11-28T23:45:14.982Z,19.80
2018-11-28T23:55:26.545Z,17.93
